Terminal Aerodrome Forecast
Issued by NWS Mobile, AL

Home | Current Version | Previous Version | Text Only | Print | Product List | Glossary On
Versions: 1 2 3 4 5 6 7 8 9 10 11 12 13 14 15 16 17 18 19 20 21 22 23 24 25
000
FTUS44 KMOB 271720
TAFMOB
TAF
KMOB 271720Z 2718/2818 VRB04KT P6SM BKN035 BKN070
     FM271900 24010G15KT P6SM SCT250
     FM272100 19009KT P6SM SKC
     FM280400 15008KT P6SM OVC010
     FM281500 16012KT P6SM BKN020=

USA.gov is the U.S. government's official web portal to all federal, state and local government web resources and services.